sensor_id;sensor_type;location;lat;lon;timestamp;temperature;humidity
5508;DHT22;2776;51.046;6.772;2023-11-19T00:01:42;12.50;99.90
5508;DHT22;2776;51.046;6.772;2023-11-19T00:04:09;12.50;99.90
5508;DHT22;2776;51.046;6.772;2023-11-19T00:06:36;12.50;99.90
5508;DHT22;2776;51.046;6.772;2023-11-19T00:09:04;12.50;99.90
5508;DHT22;2776;51.046;6.772;2023-11-19T00:11:31;12.40;99.90
5508;DHT22;2776;51.046;6.772;2023-11-19T00:13:58;12.50;99.90
5508;DHT22;2776;51.046;6.772;2023-11-19T00:16:25;12.50;99.90
5508;DHT22;2776;51.046;6.772;2023-11-19T00:18:52;12.50;99.90
5508;DHT22;2776;51.046;6.772;2023-11-19T00:21:19;12.40;99.90
5508;DHT22;2776;51.046;6.772;2023-11-19T00:23:45;12.40;99.90
5508;DHT22;2776;51.046;6.772;2023-11-19T00:26:13;12.40;99.90
5508;DHT22;2776;51.046;6.772;2023-11-19T00:28:40;12.40;99.90
5508;DHT22;2776;51.046;6.772;2023-11-19T00:31:08;12.40;99.90
5508;DHT22;2776;51.046;6.772;2023-11-19T00:33:35;12.40;99.90
5508;DHT22;2776;51.046;6.772;2023-11-19T00:36:03;12.40;99.90
5508;DHT22;2776;51.046;6.772;2023-11-19T00:38:30;12.50;99.90
5508;DHT22;2776;51.046;6.772;2023-11-19T00:40:57;12.50;99.90
5508;DHT22;2776;51.046;6.772;2023-11-19T00:43:25;12.50;99.90
5508;DHT22;2776;51.046;6.772;2023-11-19T00:45:52;12.50;99.90
5508;DHT22;2776;51.046;6.772;2023-11-19T00:48:19;12.60;99.90
5508;DHT22;2776;51.046;6.772;2023-11-19T00:50:46;12.60;99.90
5508;DHT22;2776;51.046;6.772;2023-11-19T00:53:13;12.70;99.90
5508;DHT22;2776;51.046;6.772;2023-11-19T00:55:39;12.70;99.90
5508;DHT22;2776;51.046;6.772;2023-11-19T00:58:06;12.70;99.90
5508;DHT22;2776;51.046;6.772;2023-11-19T01:00:34;12.70;99.90
5508;DHT22;2776;51.046;6.772;2023-11-19T01:03:01;12.80;99.90
5508;DHT22;2776;51.046;6.772;2023-11-19T01:05:27;12.80;99.90
5508;DHT22;2776;51.046;6.772;2023-11-19T01:07:54;12.80;99.90
5508;DHT22;2776;51.046;6.772;2023-11-19T01:10:21;12.90;99.90
5508;DHT22;2776;51.046;6.772;2023-11-19T01:12:47;12.90;99.90
5508;DHT22;2776;51.046;6.772;2023-11-19T01:15:13;12.80;99.90
5508;DHT22;2776;51.046;6.772;2023-11-19T01:17:41;12.80;99.90
5508;DHT22;2776;51.046;6.772;2023-11-19T01:20:09;12.80;99.90
5508;DHT22;2776;51.046;6.772;2023-11-19T01:22:38;12.80;99.90
5508;DHT22;2776;51.046;6.772;2023-11-19T01:25:06;12.80;99.90
5508;DHT22;2776;51.046;6.772;2023-11-19T01:27:33;12.80;99.90
5508;DHT22;2776;51.046;6.772;2023-11-19T01:30:01;12.80;99.90
5508;DHT22;2776;51.046;6.772;2023-11-19T01:32:31;12.70;99.90
5508;DHT22;2776;51.046;6.772;2023-11-19T01:34:59;12.70;99.90
5508;DHT22;2776;51.046;6.772;2023-11-19T01:37:26;12.70;99.90
5508;DHT22;2776;51.046;6.772;2023-11-19T01:39:53;12.70;99.90
5508;DHT22;2776;51.046;6.772;2023-11-19T01:42:19;12.70;99.90
5508;DHT22;2776;51.046;6.772;2023-11-19T01:44:56;12.70;99.90
5508;DHT22;2776;51.046;6.772;2023-11-19T01:47:24;12.80;99.90
5508;DHT22;2776;51.046;6.772;2023-11-19T01:49:51;12.80;99.90
5508;DHT22;2776;51.046;6.772;2023-11-19T01:52:19;12.90;99.90
5508;DHT22;2776;51.046;6.772;2023-11-19T01:54:47;12.90;99.90
5508;DHT22;2776;51.046;6.772;2023-11-19T01:57:14;12.90;99.90
5508;DHT22;2776;51.046;6.772;2023-11-19T01:59:41;13.00;99.90
5508;DHT22;2776;51.046;6.772;2023-11-19T02:02:08;13.00;99.90
5508;DHT22;2776;51.046;6.772;2023-11-19T02:04:35;13.10;99.90
5508;DHT22;2776;51.046;6.772;2023-11-19T02:07:03;13.10;99.90
5508;DHT22;2776;51.046;6.772;2023-11-19T02:09:32;13.10;99.90
5508;DHT22;2776;51.046;6.772;2023-11-19T02:11:58;13.10;99.90
5508;DHT22;2776;51.046;6.772;2023-11-19T02:14:26;13.10;99.90
5508;DHT22;2776;51.046;6.772;2023-11-19T02:16:54;13.10;99.90
5508;DHT22;2776;51.046;6.772;2023-11-19T02:19:21;13.00;99.90
5508;DHT22;2776;51.046;6.772;2023-11-19T02:21:48;13.00;99.90
5508;DHT22;2776;51.046;6.772;2023-11-19T02:24:17;13.00;99.90
5508;DHT22;2776;51.046;6.772;2023-11-19T02:26:51;13.00;99.90
5508;DHT22;2776;51.046;6.772;2023-11-19T02:29:23;13.00;99.90
5508;DHT22;2776;51.046;6.772;2023-11-19T02:31:49;13.00;99.90
5508;DHT22;2776;51.046;6.772;2023-11-19T02:34:16;13.00;99.90
5508;DHT22;2776;51.046;6.772;2023-11-19T02:36:43;13.10;99.90
5508;DHT22;2776;51.046;6.772;2023-11-19T02:39:09;13.00;99.90
5508;DHT22;2776;51.046;6.772;2023-11-19T02:41:38;12.90;99.90
5508;DHT22;2776;51.046;6.772;2023-11-19T02:44:05;12.90;99.90
5508;DHT22;2776;51.046;6.772;2023-11-19T02:46:33;12.80;99.90
5508;DHT22;2776;51.046;6.772;2023-11-19T02:49:00;12.80;99.90
5508;DHT22;2776;51.046;6.772;2023-11-19T02:51:27;12.80;99.90
5508;DHT22;2776;51.046;6.772;2023-11-19T02:53:55;12.70;99.90
5508;DHT22;2776;51.046;6.772;2023-11-19T02:56:22;12.70;99.90
5508;DHT22;2776;51.046;6.772;2023-11-19T02:58:52;12.70;99.90
5508;DHT22;2776;51.046;6.772;2023-11-19T03:01:22;12.60;99.90
5508;DHT22;2776;51.046;6.772;2023-11-19T03:03:56;12.70;99.90
5508;DHT22;2776;51.046;6.772;2023-11-19T03:06:23;12.60;99.90
5508;DHT22;2776;51.046;6.772;2023-11-19T03:08:50;12.60;99.90
5508;DHT22;2776;51.046;6.772;2023-11-19T03:11:17;12.70;99.90
5508;DHT22;2776;51.046;6.772;2023-11-19T03:13:43;12.70;99.90
5508;DHT22;2776;51.046;6.772;2023-11-19T03:16:10;12.70;99.90
5508;DHT22;2776;51.046;6.772;2023-11-19T03:18:37;12.70;99.90
5508;DHT22;2776;51.046;6.772;2023-11-19T03:21:06;12.70;99.90
5508;DHT22;2776;51.046;6.772;2023-11-19T03:23:33;12.80;99.90
5508;DHT22;2776;51.046;6.772;2023-11-19T03:26:00;12.80;99.90
5508;DHT22;2776;51.046;6.772;2023-11-19T03:28:29;12.90;99.90
5508;DHT22;2776;51.046;6.772;2023-11-19T03:30:56;12.90;99.90
5508;DHT22;2776;51.046;6.772;2023-11-19T03:33:23;12.90;99.90
5508;DHT22;2776;51.046;6.772;2023-11-19T03:35:53;13.00;99.90
5508;DHT22;2776;51.046;6.772;2023-11-19T03:38:23;13.10;99.90
5508;DHT22;2776;51.046;6.772;2023-11-19T03:40:49;13.10;99.90
5508;DHT22;2776;51.046;6.772;2023-11-19T03:43:16;13.20;99.90
5508;DHT22;2776;51.046;6.772;2023-11-19T03:45:44;13.20;99.90
5508;DHT22;2776;51.046;6.772;2023-11-19T03:48:11;13.30;99.90
5508;DHT22;2776;51.046;6.772;2023-11-19T03:50:38;13.30;99.90
5508;DHT22;2776;51.046;6.772;2023-11-19T03:53:05;13.30;99.90
5508;DHT22;2776;51.046;6.772;2023-11-19T03:55:33;13.30;99.90
5508;DHT22;2776;51.046;6.772;2023-11-19T03:58:00;13.30;99.90
5508;DHT22;2776;51.046;6.772;2023-11-19T04:00:27;13.30;99.90
5508;DHT22;2776;51.046;6.772;2023-11-19T04:02:53;13.20;99.90
5508;DHT22;2776;51.046;6.772;2023-11-19T04:05:20;13.20;99.90
5508;DHT22;2776;51.046;6.772;2023-11-19T04:07:47;13.10;99.90
5508;DHT22;2776;51.046;6.772;2023-11-19T04:10:14;13.10;99.90
5508;DHT22;2776;51.046;6.772;2023-11-19T04:12:43;13.10;99.90
5508;DHT22;2776;51.046;6.772;2023-11-19T04:15:11;13.00;99.90
5508;DHT22;2776;51.046;6.772;2023-11-19T04:17:38;12.90;99.90
5508;DHT22;2776;51.046;6.772;2023-11-19T04:20:06;12.80;99.90
5508;DHT22;2776;51.046;6.772;2023-11-19T04:22:36;12.80;99.90
5508;DHT22;2776;51.046;6.772;2023-11-19T04:25:03;12.80;99.90
5508;DHT22;2776;51.046;6.772;2023-11-19T04:27:30;12.70;99.90
5508;DHT22;2776;51.046;6.772;2023-11-19T04:29:59;12.70;99.90
5508;DHT22;2776;51.046;6.772;2023-11-19T04:32:27;12.60;99.90
5508;DHT22;2776;51.046;6.772;2023-11-19T04:34:54;12.60;99.90
5508;DHT22;2776;51.046;6.772;2023-11-19T04:37:21;12.50;99.90
5508;DHT22;2776;51.046;6.772;2023-11-19T04:39:48;12.50;99.90
5508;DHT22;2776;51.046;6.772;2023-11-19T04:42:14;12.50;99.90
5508;DHT22;2776;51.046;6.772;2023-11-19T04:44:43;12.50;99.90
5508;DHT22;2776;51.046;6.772;2023-11-19T04:47:11;12.50;99.90
5508;DHT22;2776;51.046;6.772;2023-11-19T04:49:40;12.50;99.90
5508;DHT22;2776;51.046;6.772;2023-11-19T04:52:08;12.50;99.90
5508;DHT22;2776;51.046;6.772;2023-11-19T04:54:35;12.50;99.90
5508;DHT22;2776;51.046;6.772;2023-11-19T04:57:02;12.50;99.90
5508;DHT22;2776;51.046;6.772;2023-11-19T04:59:28;12.50;99.90
5508;DHT22;2776;51.046;6.772;2023-11-19T05:01:55;12.50;99.90
5508;DHT22;2776;51.046;6.772;2023-11-19T05:04:24;12.50;99.90
5508;DHT22;2776;51.046;6.772;2023-11-19T05:06:51;12.50;99.90
5508;DHT22;2776;51.046;6.772;2023-11-19T05:09:18;12.50;99.90
5508;DHT22;2776;51.046;6.772;2023-11-19T05:11:45;12.40;99.90
5508;DHT22;2776;51.046;6.772;2023-11-19T05:14:12;12.40;99.90
5508;DHT22;2776;51.046;6.772;2023-11-19T05:16:39;12.40;99.90
5508;DHT22;2776;51.046;6.772;2023-11-19T05:19:06;12.40;99.90
5508;DHT22;2776;51.046;6.772;2023-11-19T05:21:35;12.40;99.90
5508;DHT22;2776;51.046;6.772;2023-11-19T05:24:02;12.40;99.90
5508;DHT22;2776;51.046;6.772;2023-11-19T05:26:30;12.40;99.90
5508;DHT22;2776;51.046;6.772;2023-11-19T05:28:57;12.40;99.90
5508;DHT22;2776;51.046;6.772;2023-11-19T05:31:24;12.30;99.90
5508;DHT22;2776;51.046;6.772;2023-11-19T05:33:50;12.30;99.90
5508;DHT22;2776;51.046;6.772;2023-11-19T05:36:17;12.30;99.90
5508;DHT22;2776;51.046;6.772;2023-11-19T05:38:45;12.30;99.90
5508;DHT22;2776;51.046;6.772;2023-11-19T05:41:12;12.30;99.90
5508;DHT22;2776;51.046;6.772;2023-11-19T05:43:39;12.20;99.90
5508;DHT22;2776;51.046;6.772;2023-11-19T05:46:06;12.20;99.90
5508;DHT22;2776;51.046;6.772;2023-11-19T05:48:34;12.20;99.90
5508;DHT22;2776;51.046;6.772;2023-11-19T05:51:01;12.20;99.90
5508;DHT22;2776;51.046;6.772;2023-11-19T05:53:28;12.10;99.90
5508;DHT22;2776;51.046;6.772;2023-11-19T05:55:56;12.10;99.90
5508;DHT22;2776;51.046;6.772;2023-11-19T05:58:24;12.10;99.90
5508;DHT22;2776;51.046;6.772;2023-11-19T06:00:53;12.10;99.90
5508;DHT22;2776;51.046;6.772;2023-11-19T06:03:20;12.10;99.90
5508;DHT22;2776;51.046;6.772;2023-11-19T06:05:47;12.10;99.90
5508;DHT22;2776;51.046;6.772;2023-11-19T06:08:14;12.10;99.90
5508;DHT22;2776;51.046;6.772;2023-11-19T06:10:41;12.00;99.90
5508;DHT22;2776;51.046;6.772;2023-11-19T06:13:10;12.00;99.90
5508;DHT22;2776;51.046;6.772;2023-11-19T06:15:37;12.00;99.90
5508;DHT22;2776;51.046;6.772;2023-11-19T06:18:04;11.90;99.90
5508;DHT22;2776;51.046;6.772;2023-11-19T06:20:31;11.90;99.90
5508;DHT22;2776;51.046;6.772;2023-11-19T06:22:57;11.90;99.90
5508;DHT22;2776;51.046;6.772;2023-11-19T06:25:24;11.90;99.90
5508;DHT22;2776;51.046;6.772;2023-11-19T06:27:52;11.80;99.90
5508;DHT22;2776;51.046;6.772;2023-11-19T06:30:20;11.90;99.90
5508;DHT22;2776;51.046;6.772;2023-11-19T06:32:47;11.90;99.90
5508;DHT22;2776;51.046;6.772;2023-11-19T06:35:13;11.90;99.90
5508;DHT22;2776;51.046;6.772;2023-11-19T06:37:40;11.90;99.90
5508;DHT22;2776;51.046;6.772;2023-11-19T06:40:08;11.90;99.90
5508;DHT22;2776;51.046;6.772;2023-11-19T06:42:35;11.90;99.90
5508;DHT22;2776;51.046;6.772;2023-11-19T06:45:02;11.90;99.90
5508;DHT22;2776;51.046;6.772;2023-11-19T06:47:31;11.90;99.90
5508;DHT22;2776;51.046;6.772;2023-11-19T06:49:58;11.80;99.90
5508;DHT22;2776;51.046;6.772;2023-11-19T06:52:25;11.80;99.90
5508;DHT22;2776;51.046;6.772;2023-11-19T06:54:52;11.80;99.90
5508;DHT22;2776;51.046;6.772;2023-11-19T06:57:18;11.80;99.90
5508;DHT22;2776;51.046;6.772;2023-11-19T06:59:45;11.80;99.90
5508;DHT22;2776;51.046;6.772;2023-11-19T07:02:12;11.90;99.90
5508;DHT22;2776;51.046;6.772;2023-11-19T07:04:41;12.00;99.90
5508;DHT22;2776;51.046;6.772;2023-11-19T07:07:08;12.00;99.90
5508;DHT22;2776;51.046;6.772;2023-11-19T07:09:35;11.90;99.90
5508;DHT22;2776;51.046;6.772;2023-11-19T07:12:03;11.80;99.90
5508;DHT22;2776;51.046;6.772;2023-11-19T07:14:30;11.80;99.90
5508;DHT22;2776;51.046;6.772;2023-11-19T07:16:57;11.80;99.90
5508;DHT22;2776;51.046;6.772;2023-11-19T07:19:23;11.80;99.90
5508;DHT22;2776;51.046;6.772;2023-11-19T07:21:52;11.80;99.90
5508;DHT22;2776;51.046;6.772;2023-11-19T07:24:19;11.80;99.90
5508;DHT22;2776;51.046;6.772;2023-11-19T07:26:47;11.80;99.90
5508;DHT22;2776;51.046;6.772;2023-11-19T07:29:14;11.80;99.90
5508;DHT22;2776;51.046;6.772;2023-11-19T07:31:41;11.80;99.90
5508;DHT22;2776;51.046;6.772;2023-11-19T07:34:09;11.90;99.90
5508;DHT22;2776;51.046;6.772;2023-11-19T07:36:37;12.00;99.90
5508;DHT22;2776;51.046;6.772;2023-11-19T07:39:05;12.10;99.90
5508;DHT22;2776;51.046;6.772;2023-11-19T07:41:32;12.20;99.90
5508;DHT22;2776;51.046;6.772;2023-11-19T07:44:00;12.20;99.90
5508;DHT22;2776;51.046;6.772;2023-11-19T07:46:26;12.20;99.90
5508;DHT22;2776;51.046;6.772;2023-11-19T07:48:53;12.20;99.90
5508;DHT22;2776;51.046;6.772;2023-11-19T07:51:20;12.30;99.90
5508;DHT22;2776;51.046;6.772;2023-11-19T07:53:47;12.30;99.90
5508;DHT22;2776;51.046;6.772;2023-11-19T07:56:16;12.30;99.90
5508;DHT22;2776;51.046;6.772;2023-11-19T07:58:42;12.50;99.90
5508;DHT22;2776;51.046;6.772;2023-11-19T08:01:09;12.70;99.90
5508;DHT22;2776;51.046;6.772;2023-11-19T08:03:36;12.70;99.90
5508;DHT22;2776;51.046;6.772;2023-11-19T08:06:04;12.70;99.90
5508;DHT22;2776;51.046;6.772;2023-11-19T08:08:30;12.70;99.90
5508;DHT22;2776;51.046;6.772;2023-11-19T08:10:58;12.70;99.90
5508;DHT22;2776;51.046;6.772;2023-11-19T08:13:26;12.70;99.90
5508;DHT22;2776;51.046;6.772;2023-11-19T08:15:53;12.80;99.90
5508;DHT22;2776;51.046;6.772;2023-11-19T08:18:20;12.90;99.90
5508;DHT22;2776;51.046;6.772;2023-11-19T08:20:47;12.90;99.90
5508;DHT22;2776;51.046;6.772;2023-11-19T08:23:18;13.10;99.90
5508;DHT22;2776;51.046;6.772;2023-11-19T08:25:45;13.20;99.90
5508;DHT22;2776;51.046;6.772;2023-11-19T08:28:12;13.20;99.90
5508;DHT22;2776;51.046;6.772;2023-11-19T08:30:40;13.30;99.90
5508;DHT22;2776;51.046;6.772;2023-11-19T08:33:06;13.30;99.90
5508;DHT22;2776;51.046;6.772;2023-11-19T08:35:33;13.20;99.90
5508;DHT22;2776;51.046;6.772;2023-11-19T08:38:00;13.30;99.90
5508;DHT22;2776;51.046;6.772;2023-11-19T08:40:27;13.30;99.90
5508;DHT22;2776;51.046;6.772;2023-11-19T08:42:54;13.40;99.90
5508;DHT22;2776;51.046;6.772;2023-11-19T08:45:21;13.40;99.90
5508;DHT22;2776;51.046;6.772;2023-11-19T08:47:49;13.50;99.90
5508;DHT22;2776;51.046;6.772;2023-11-19T08:50:16;13.50;99.90
5508;DHT22;2776;51.046;6.772;2023-11-19T08:52:43;13.40;99.90
5508;DHT22;2776;51.046;6.772;2023-11-19T08:55:09;13.40;99.90
5508;DHT22;2776;51.046;6.772;2023-11-19T08:57:37;13.60;99.90
5508;DHT22;2776;51.046;6.772;2023-11-19T09:00:05;13.70;99.90
5508;DHT22;2776;51.046;6.772;2023-11-19T09:02:33;13.70;99.90
5508;DHT22;2776;51.046;6.772;2023-11-19T09:05:01;13.80;99.90
5508;DHT22;2776;51.046;6.772;2023-11-19T09:07:28;14.10;99.90
5508;DHT22;2776;51.046;6.772;2023-11-19T09:09:55;14.20;99.90
5508;DHT22;2776;51.046;6.772;2023-11-19T09:12:21;14.40;99.90
5508;DHT22;2776;51.046;6.772;2023-11-19T09:14:48;14.50;99.90
5508;DHT22;2776;51.046;6.772;2023-11-19T09:17:16;14.50;99.90
5508;DHT22;2776;51.046;6.772;2023-11-19T09:19:43;14.50;99.90
5508;DHT22;2776;51.046;6.772;2023-11-19T09:22:11;14.60;99.90
5508;DHT22;2776;51.046;6.772;2023-11-19T09:24:38;14.50;99.90
5508;DHT22;2776;51.046;6.772;2023-11-19T09:27:05;14.60;99.90
5508;DHT22;2776;51.046;6.772;2023-11-19T09:29:32;14.60;99.90
5508;DHT22;2776;51.046;6.772;2023-11-19T09:31:59;14.70;99.90
5508;DHT22;2776;51.046;6.772;2023-11-19T09:34:26;14.90;99.90
5508;DHT22;2776;51.046;6.772;2023-11-19T09:36:53;14.90;99.90
5508;DHT22;2776;51.046;6.772;2023-11-19T09:39:21;14.90;99.90
5508;DHT22;2776;51.046;6.772;2023-11-19T09:41:48;14.60;99.90
5508;DHT22;2776;51.046;6.772;2023-11-19T09:44:15;14.60;99.90
5508;DHT22;2776;51.046;6.772;2023-11-19T09:46:44;14.50;99.90
5508;DHT22;2776;51.046;6.772;2023-11-19T09:49:11;14.40;99.90
5508;DHT22;2776;51.046;6.772;2023-11-19T09:51:39;14.30;99.90
5508;DHT22;2776;51.046;6.772;2023-11-19T09:54:06;14.20;99.90
5508;DHT22;2776;51.046;6.772;2023-11-19T09:56:35;14.20;99.90
5508;DHT22;2776;51.046;6.772;2023-11-19T09:59:02;14.20;99.90
5508;DHT22;2776;51.046;6.772;2023-11-19T10:01:29;14.30;99.90
5508;DHT22;2776;51.046;6.772;2023-11-19T10:03:57;14.30;99.90
5508;DHT22;2776;51.046;6.772;2023-11-19T10:06:25;14.30;99.90
5508;DHT22;2776;51.046;6.772;2023-11-19T10:08:52;14.30;99.90
5508;DHT22;2776;51.046;6.772;2023-11-19T10:11:21;14.30;99.90
5508;DHT22;2776;51.046;6.772;2023-11-19T10:13:49;14.20;99.90
5508;DHT22;2776;51.046;6.772;2023-11-19T10:16:17;14.30;99.90
5508;DHT22;2776;51.046;6.772;2023-11-19T10:18:45;14.30;99.90
5508;DHT22;2776;51.046;6.772;2023-11-19T10:21:13;14.40;99.90
5508;DHT22;2776;51.046;6.772;2023-11-19T10:23:49;14.40;99.90
5508;DHT22;2776;51.046;6.772;2023-11-19T10:26:17;14.40;99.90
5508;DHT22;2776;51.046;6.772;2023-11-19T10:28:46;14.50;99.90
5508;DHT22;2776;51.046;6.772;2023-11-19T10:31:14;14.30;99.90
5508;DHT22;2776;51.046;6.772;2023-11-19T10:33:41;14.10;99.90
5508;DHT22;2776;51.046;6.772;2023-11-19T10:36:09;14.00;99.90
5508;DHT22;2776;51.046;6.772;2023-11-19T10:38:38;13.90;99.90
5508;DHT22;2776;51.046;6.772;2023-11-19T10:41:05;13.90;99.90
5508;DHT22;2776;51.046;6.772;2023-11-19T10:43:42;14.10;99.90
5508;DHT22;2776;51.046;6.772;2023-11-19T10:46:10;14.30;99.90
5508;DHT22;2776;51.046;6.772;2023-11-19T10:48:40;14.50;99.90
5508;DHT22;2776;51.046;6.772;2023-11-19T10:51:08;14.70;99.90
5508;DHT22;2776;51.046;6.772;2023-11-19T10:53:36;14.90;99.90
5508;DHT22;2776;51.046;6.772;2023-11-19T10:56:06;14.90;99.90
5508;DHT22;2776;51.046;6.772;2023-11-19T10:58:36;14.90;99.90
5508;DHT22;2776;51.046;6.772;2023-11-19T11:01:11;15.00;99.90
5508;DHT22;2776;51.046;6.772;2023-11-19T11:03:41;14.80;99.90
5508;DHT22;2776;51.046;6.772;2023-11-19T11:06:09;14.80;99.90
5508;DHT22;2776;51.046;6.772;2023-11-19T11:08:37;14.40;99.90
5508;DHT22;2776;51.046;6.772;2023-11-19T11:11:05;14.40;99.90
5508;DHT22;2776;51.046;6.772;2023-11-19T11:13:32;14.30;99.90
5508;DHT22;2776;51.046;6.772;2023-11-19T11:16:00;14.30;99.90
5508;DHT22;2776;51.046;6.772;2023-11-19T11:18:27;14.30;99.90
5508;DHT22;2776;51.046;6.772;2023-11-19T11:21:00;14.50;99.90
5508;DHT22;2776;51.046;6.772;2023-11-19T11:23:50;14.60;99.90
5508;DHT22;2776;51.046;6.772;2023-11-19T11:27:05;14.50;99.90
5508;DHT22;2776;51.046;6.772;2023-11-19T11:29:40;14.50;99.90
5508;DHT22;2776;51.046;6.772;2023-11-19T11:32:18;14.50;99.90
5508;DHT22;2776;51.046;6.772;2023-11-19T11:34:58;14.50;99.90
5508;DHT22;2776;51.046;6.772;2023-11-19T11:37:32;14.40;99.90
5508;DHT22;2776;51.046;6.772;2023-11-19T11:39:59;14.50;99.90
5508;DHT22;2776;51.046;6.772;2023-11-19T11:42:34;14.50;99.90
5508;DHT22;2776;51.046;6.772;2023-11-19T11:45:02;14.60;99.90
5508;DHT22;2776;51.046;6.772;2023-11-19T11:48:04;14.70;99.90
5508;DHT22;2776;51.046;6.772;2023-11-19T11:50:34;14.70;99.90
5508;DHT22;2776;51.046;6.772;2023-11-19T11:53:19;14.80;99.90
5508;DHT22;2776;51.046;6.772;2023-11-19T11:55:59;14.80;99.90
5508;DHT22;2776;51.046;6.772;2023-11-19T11:58:35;14.80;99.90
5508;DHT22;2776;51.046;6.772;2023-11-19T12:01:04;14.70;99.90
5508;DHT22;2776;51.046;6.772;2023-11-19T12:03:32;14.70;99.90
5508;DHT22;2776;51.046;6.772;2023-11-19T12:05:59;14.70;99.90
5508;DHT22;2776;51.046;6.772;2023-11-19T12:08:28;14.50;99.90
5508;DHT22;2776;51.046;6.772;2023-11-19T12:10:57;14.50;99.90
5508;DHT22;2776;51.046;6.772;2023-11-19T12:13:47;14.60;99.90
5508;DHT22;2776;51.046;6.772;2023-11-19T12:16:14;14.50;99.90
5508;DHT22;2776;51.046;6.772;2023-11-19T12:18:41;14.50;99.90
5508;DHT22;2776;51.046;6.772;2023-11-19T12:21:08;14.60;99.90
5508;DHT22;2776;51.046;6.772;2023-11-19T12:23:46;14.60;99.90
5508;DHT22;2776;51.046;6.772;2023-11-19T12:26:33;14.70;99.90
5508;DHT22;2776;51.046;6.772;2023-11-19T12:29:01;14.90;99.90
5508;DHT22;2776;51.046;6.772;2023-11-19T12:31:29;14.90;99.90
5508;DHT22;2776;51.046;6.772;2023-11-19T12:33:57;14.80;99.90
5508;DHT22;2776;51.046;6.772;2023-11-19T12:36:23;14.70;99.90
5508;DHT22;2776;51.046;6.772;2023-11-19T12:38:52;14.60;99.90
5508;DHT22;2776;51.046;6.772;2023-11-19T12:41:18;14.50;99.90
5508;DHT22;2776;51.046;6.772;2023-11-19T12:43:49;14.50;99.90
5508;DHT22;2776;51.046;6.772;2023-11-19T12:46:20;14.50;99.90
5508;DHT22;2776;51.046;6.772;2023-11-19T12:48:47;14.50;99.90
5508;DHT22;2776;51.046;6.772;2023-11-19T12:51:13;14.50;99.90
5508;DHT22;2776;51.046;6.772;2023-11-19T12:53:50;14.40;99.90
5508;DHT22;2776;51.046;6.772;2023-11-19T12:56:21;14.40;99.90
5508;DHT22;2776;51.046;6.772;2023-11-19T12:58:48;14.40;99.90
5508;DHT22;2776;51.046;6.772;2023-11-19T13:01:16;14.40;99.90
5508;DHT22;2776;51.046;6.772;2023-11-19T13:03:44;14.40;99.90
5508;DHT22;2776;51.046;6.772;2023-11-19T13:06:13;14.40;99.90
5508;DHT22;2776;51.046;6.772;2023-11-19T13:08:42;14.30;99.90
5508;DHT22;2776;51.046;6.772;2023-11-19T13:11:10;14.20;99.90
5508;DHT22;2776;51.046;6.772;2023-11-19T13:13:58;14.10;99.90
5508;DHT22;2776;51.046;6.772;2023-11-19T13:16:24;14.10;99.90
5508;DHT22;2776;51.046;6.772;2023-11-19T13:18:52;14.10;99.90
5508;DHT22;2776;51.046;6.772;2023-11-19T13:21:19;14.00;99.90
5508;DHT22;2776;51.046;6.772;2023-11-19T13:23:45;13.90;99.90
5508;DHT22;2776;51.046;6.772;2023-11-19T13:26:12;13.80;99.90
5508;DHT22;2776;51.046;6.772;2023-11-19T13:28:39;13.70;99.90
5508;DHT22;2776;51.046;6.772;2023-11-19T13:31:07;13.70;99.90
5508;DHT22;2776;51.046;6.772;2023-11-19T13:33:34;13.60;99.90
5508;DHT22;2776;51.046;6.772;2023-11-19T13:36:01;13.50;99.90
5508;DHT22;2776;51.046;6.772;2023-11-19T13:38:31;13.50;99.90
5508;DHT22;2776;51.046;6.772;2023-11-19T13:40:58;13.50;99.90
5508;DHT22;2776;51.046;6.772;2023-11-19T13:43:25;13.40;99.90
5508;DHT22;2776;51.046;6.772;2023-11-19T13:45:53;13.40;99.90
5508;DHT22;2776;51.046;6.772;2023-11-19T13:48:21;13.50;99.90
5508;DHT22;2776;51.046;6.772;2023-11-19T13:50:48;13.50;99.90
5508;DHT22;2776;51.046;6.772;2023-11-19T13:53:15;13.60;99.90
5508;DHT22;2776;51.046;6.772;2023-11-19T13:55:42;13.70;99.90
5508;DHT22;2776;51.046;6.772;2023-11-19T13:58:09;13.80;99.90
5508;DHT22;2776;51.046;6.772;2023-11-19T14:00:36;13.90;99.90
5508;DHT22;2776;51.046;6.772;2023-11-19T14:03:04;13.90;99.90
5508;DHT22;2776;51.046;6.772;2023-11-19T14:05:32;13.90;99.90
5508;DHT22;2776;51.046;6.772;2023-11-19T14:07:59;13.90;99.90
5508;DHT22;2776;51.046;6.772;2023-11-19T14:10:26;13.90;99.90
5508;DHT22;2776;51.046;6.772;2023-11-19T14:12:54;13.90;99.90
5508;DHT22;2776;51.046;6.772;2023-11-19T14:15:20;13.80;99.90
5508;DHT22;2776;51.046;6.772;2023-11-19T14:17:47;13.90;99.90
5508;DHT22;2776;51.046;6.772;2023-11-19T14:20:14;13.80;99.90
5508;DHT22;2776;51.046;6.772;2023-11-19T14:22:44;13.80;99.90
5508;DHT22;2776;51.046;6.772;2023-11-19T14:25:13;13.80;99.90
5508;DHT22;2776;51.046;6.772;2023-11-19T14:27:41;13.80;99.90
5508;DHT22;2776;51.046;6.772;2023-11-19T14:30:10;13.70;99.90
5508;DHT22;2776;51.046;6.772;2023-11-19T14:32:37;13.60;99.90
5508;DHT22;2776;51.046;6.772;2023-11-19T14:35:05;13.50;99.90
5508;DHT22;2776;51.046;6.772;2023-11-19T14:37:32;13.50;99.90
5508;DHT22;2776;51.046;6.772;2023-11-19T14:40:01;13.50;99.90
5508;DHT22;2776;51.046;6.772;2023-11-19T14:42:29;13.50;99.90
5508;DHT22;2776;51.046;6.772;2023-11-19T14:44:56;13.50;99.90
5508;DHT22;2776;51.046;6.772;2023-11-19T14:47:23;13.50;99.90
5508;DHT22;2776;51.046;6.772;2023-11-19T14:49:50;13.60;99.90
5508;DHT22;2776;51.046;6.772;2023-11-19T14:52:17;13.50;99.90
5508;DHT22;2776;51.046;6.772;2023-11-19T14:54:43;13.40;99.90
5508;DHT22;2776;51.046;6.772;2023-11-19T14:57:12;13.30;99.90
5508;DHT22;2776;51.046;6.772;2023-11-19T14:59:39;13.20;99.90
5508;DHT22;2776;51.046;6.772;2023-11-19T15:02:06;13.20;99.90
5508;DHT22;2776;51.046;6.772;2023-11-19T15:04:33;13.10;99.90
5508;DHT22;2776;51.046;6.772;2023-11-19T15:07:00;13.10;99.90
5508;DHT22;2776;51.046;6.772;2023-11-19T15:09:28;13.10;99.90
5508;DHT22;2776;51.046;6.772;2023-11-19T15:11:55;13.10;99.90
5508;DHT22;2776;51.046;6.772;2023-11-19T15:14:25;12.90;99.90
5508;DHT22;2776;51.046;6.772;2023-11-19T15:16:51;13.00;99.90
5508;DHT22;2776;51.046;6.772;2023-11-19T15:19:18;13.00;99.90
5508;DHT22;2776;51.046;6.772;2023-11-19T15:21:45;13.00;99.90
5508;DHT22;2776;51.046;6.772;2023-11-19T15:24:12;13.00;99.90
5508;DHT22;2776;51.046;6.772;2023-11-19T15:26:39;12.90;99.90
5508;DHT22;2776;51.046;6.772;2023-11-19T15:29:05;12.80;99.90
5508;DHT22;2776;51.046;6.772;2023-11-19T15:31:33;12.80;99.90
5508;DHT22;2776;51.046;6.772;2023-11-19T15:34:00;12.80;99.90
5508;DHT22;2776;51.046;6.772;2023-11-19T15:36:28;12.80;99.90
5508;DHT22;2776;51.046;6.772;2023-11-19T15:38:55;12.70;99.90
5508;DHT22;2776;51.046;6.772;2023-11-19T15:41:22;12.60;99.90
5508;DHT22;2776;51.046;6.772;2023-11-19T15:43:49;12.60;99.90
5508;DHT22;2776;51.046;6.772;2023-11-19T15:46:15;12.60;99.90
5508;DHT22;2776;51.046;6.772;2023-11-19T15:48:43;12.60;99.90
5508;DHT22;2776;51.046;6.772;2023-11-19T15:51:11;12.50;99.90
5508;DHT22;2776;51.046;6.772;2023-11-19T15:53:37;12.50;99.90
5508;DHT22;2776;51.046;6.772;2023-11-19T15:56:05;12.50;99.90
5508;DHT22;2776;51.046;6.772;2023-11-19T15:58:32;12.40;99.90
5508;DHT22;2776;51.046;6.772;2023-11-19T16:00:59;12.30;99.90
5508;DHT22;2776;51.046;6.772;2023-11-19T16:03:26;12.30;99.90
5508;DHT22;2776;51.046;6.772;2023-11-19T16:05:55;12.20;99.90
5508;DHT22;2776;51.046;6.772;2023-11-19T16:08:21;12.20;99.90